sensor_id;sensor_type;location;lat;lon;timestamp;temperature;humidity
65598;SHT31;52267;51.984;20.956;2023-02-28T00:01:32;-2.20;70.06
65598;SHT31;52267;51.984;20.956;2023-02-28T00:04:00;-2.22;70.10
65598;SHT31;52267;51.984;20.956;2023-02-28T00:06:27;-2.26;70.25
65598;SHT31;52267;51.984;20.956;2023-02-28T00:08:54;-2.34;70.43
65598;SHT31;52267;51.984;20.956;2023-02-28T00:11:21;-2.40;70.57
65598;SHT31;52267;51.984;20.956;2023-02-28T00:13:49;-2.41;70.61
65598;SHT31;52267;51.984;20.956;2023-02-28T00:16:18;-2.50;70.92
65598;SHT31;52267;51.984;20.956;2023-02-28T00:18:48;-2.54;70.89
65598;SHT31;52267;51.984;20.956;2023-02-28T00:21:15;-2.69;71.44
65598;SHT31;52267;51.984;20.956;2023-02-28T00:23:44;-2.75;71.61
65598;SHT31;52267;51.984;20.956;2023-02-28T00:26:11;-2.77;71.46
65598;SHT31;52267;51.984;20.956;2023-02-28T00:28:38;-2.80;71.46
65598;SHT31;52267;51.984;20.956;2023-02-28T00:31:05;-2.85;71.44
65598;SHT31;52267;51.984;20.956;2023-02-28T00:33:33;-2.92;71.59
65598;SHT31;52267;51.984;20.956;2023-02-28T00:36:03;-2.91;71.66
65598;SHT31;52267;51.984;20.956;2023-02-28T00:38:33;-2.89;71.68
65598;SHT31;52267;51.984;20.956;2023-02-28T00:41:00;-2.92;71.80
65598;SHT31;52267;51.984;20.956;2023-02-28T00:43:31;-2.98;71.94
65598;SHT31;52267;51.984;20.956;2023-02-28T00:46:03;-3.03;72.09
65598;SHT31;52267;51.984;20.956;2023-02-28T00:48:31;-3.08;72.20
65598;SHT31;52267;51.984;20.956;2023-02-28T00:51:01;-3.08;72.25
65598;SHT31;52267;51.984;20.956;2023-02-28T00:53:29;-3.06;72.18
65598;SHT31;52267;51.984;20.956;2023-02-28T00:55:56;-3.07;72.24
65598;SHT31;52267;51.984;20.956;2023-02-28T00:58:23;-3.14;72.40
65598;SHT31;52267;51.984;20.956;2023-02-28T01:00:51;-3.17;72.55
65598;SHT31;52267;51.984;20.956;2023-02-28T01:03:19;-3.25;72.70
65598;SHT31;52267;51.984;20.956;2023-02-28T01:05:47;-3.27;72.79
65598;SHT31;52267;51.984;20.956;2023-02-28T01:08:14;-3.33;73.04
65598;SHT31;52267;51.984;20.956;2023-02-28T01:10:41;-3.43;73.50
65598;SHT31;52267;51.984;20.956;2023-02-28T01:13:09;-3.49;73.72
65598;SHT31;52267;51.984;20.956;2023-02-28T01:15:45;-3.48;73.64
65598;SHT31;52267;51.984;20.956;2023-02-28T01:18:17;-3.49;73.65
65598;SHT31;52267;51.984;20.956;2023-02-28T01:20:45;-3.52;73.69
65598;SHT31;52267;51.984;20.956;2023-02-28T01:23:12;-3.54;73.70
65598;SHT31;52267;51.984;20.956;2023-02-28T01:25:39;-3.59;73.82
65598;SHT31;52267;51.984;20.956;2023-02-28T01:28:06;-3.64;73.98
65598;SHT31;52267;51.984;20.956;2023-02-28T01:30:34;-3.73;74.18
65598;SHT31;52267;51.984;20.956;2023-02-28T01:33:01;-3.74;74.20
65598;SHT31;52267;51.984;20.956;2023-02-28T01:35:28;-3.75;74.15
65598;SHT31;52267;51.984;20.956;2023-02-28T01:37:55;-3.75;74.10
65598;SHT31;52267;51.984;20.956;2023-02-28T01:40:22;-3.76;74.09
65598;SHT31;52267;51.984;20.956;2023-02-28T01:42:49;-3.76;74.03
65598;SHT31;52267;51.984;20.956;2023-02-28T01:45:18;-3.75;73.92
65598;SHT31;52267;51.984;20.956;2023-02-28T01:47:47;-3.77;73.97
65598;SHT31;52267;51.984;20.956;2023-02-28T01:50:19;-3.83;74.15
65598;SHT31;52267;51.984;20.956;2023-02-28T01:52:55;-3.86;74.32
65598;SHT31;52267;51.984;20.956;2023-02-28T01:55:27;-3.86;74.37
65598;SHT31;52267;51.984;20.956;2023-02-28T01:57:56;-3.89;74.40
65598;SHT31;52267;51.984;20.956;2023-02-28T02:00:28;-3.95;74.51
65598;SHT31;52267;51.984;20.956;2023-02-28T02:02:58;-3.93;74.40
65598;SHT31;52267;51.984;20.956;2023-02-28T02:05:34;-3.94;74.33
65598;SHT31;52267;51.984;20.956;2023-02-28T02:08:05;-3.96;74.35
65598;SHT31;52267;51.984;20.956;2023-02-28T02:36:58;-4.34;75.09
65598;SHT31;52267;51.984;20.956;2023-02-28T02:42:08;-4.39;75.25
65598;SHT31;52267;51.984;20.956;2023-02-28T02:44:47;-4.36;75.12
65598;SHT31;52267;51.984;20.956;2023-02-28T02:47:22;-4.39;75.00
65598;SHT31;52267;51.984;20.956;2023-02-28T02:49:53;-4.41;74.95
65598;SHT31;52267;51.984;20.956;2023-02-28T02:52:25;-4.44;75.04
65598;SHT31;52267;51.984;20.956;2023-02-28T02:55:02;-4.49;75.15
65598;SHT31;52267;51.984;20.956;2023-02-28T02:57:33;-4.48;75.05
65598;SHT31;52267;51.984;20.956;2023-02-28T03:00:13;-4.49;74.97
65598;SHT31;52267;51.984;20.956;2023-02-28T03:02:46;-4.56;75.12
65598;SHT31;52267;51.984;20.956;2023-02-28T03:05:20;-4.58;75.27
65598;SHT31;52267;51.984;20.956;2023-02-28T03:08:05;-4.57;75.27
65598;SHT31;52267;51.984;20.956;2023-02-28T03:10:39;-4.57;75.22
65598;SHT31;52267;51.984;20.956;2023-02-28T03:13:31;-4.61;75.38
65598;SHT31;52267;51.984;20.956;2023-02-28T03:28:45;-4.69;75.31
65598;SHT31;52267;51.984;20.956;2023-02-28T03:36:38;-4.86;75.85
65598;SHT31;52267;51.984;20.956;2023-02-28T03:39:14;-4.86;75.73
65598;SHT31;52267;51.984;20.956;2023-02-28T03:41:47;-4.83;75.65
65598;SHT31;52267;51.984;20.956;2023-02-28T03:44:22;-4.84;75.79
65598;SHT31;52267;51.984;20.956;2023-02-28T03:47:08;-4.86;75.88
65598;SHT31;52267;51.984;20.956;2023-02-28T03:49:45;-4.88;75.95
65598;SHT31;52267;51.984;20.956;2023-02-28T03:52:23;-4.85;75.96
65598;SHT31;52267;51.984;20.956;2023-02-28T03:54:56;-4.82;75.86
65598;SHT31;52267;51.984;20.956;2023-02-28T04:00:30;-4.81;75.66
65598;SHT31;52267;51.984;20.956;2023-02-28T04:03:02;-4.87;75.73
65598;SHT31;52267;51.984;20.956;2023-02-28T04:05:29;-4.86;75.62
65598;SHT31;52267;51.984;20.956;2023-02-28T04:08:04;-4.87;75.61
65598;SHT31;52267;51.984;20.956;2023-02-28T04:10:34;-4.88;75.65
65598;SHT31;52267;51.984;20.956;2023-02-28T04:13:01;-4.92;75.71
65598;SHT31;52267;51.984;20.956;2023-02-28T04:15:28;-4.95;75.81
65598;SHT31;52267;51.984;20.956;2023-02-28T04:17:55;-4.99;75.86
65598;SHT31;52267;51.984;20.956;2023-02-28T04:20:22;-5.02;75.97
65598;SHT31;52267;51.984;20.956;2023-02-28T04:22:49;-5.01;76.10
65598;SHT31;52267;51.984;20.956;2023-02-28T04:25:16;-4.95;75.95
65598;SHT31;52267;51.984;20.956;2023-02-28T04:27:43;-4.94;75.82
65598;SHT31;52267;51.984;20.956;2023-02-28T04:30:11;-4.93;75.83
65598;SHT31;52267;51.984;20.956;2023-02-28T04:32:38;-4.92;75.89
65598;SHT31;52267;51.984;20.956;2023-02-28T04:35:06;-4.93;75.90
65598;SHT31;52267;51.984;20.956;2023-02-28T04:37:33;-4.97;75.98
65598;SHT31;52267;51.984;20.956;2023-02-28T04:40:03;-4.97;75.98
65598;SHT31;52267;51.984;20.956;2023-02-28T04:42:31;-4.94;75.88
65598;SHT31;52267;51.984;20.956;2023-02-28T04:45:02;-4.92;75.78
65598;SHT31;52267;51.984;20.956;2023-02-28T04:47:30;-4.93;75.69
65598;SHT31;52267;51.984;20.956;2023-02-28T04:49:57;-4.94;75.61
65598;SHT31;52267;51.984;20.956;2023-02-28T04:52:24;-5.00;75.76
65598;SHT31;52267;51.984;20.956;2023-02-28T04:54:51;-5.05;75.96
65598;SHT31;52267;51.984;20.956;2023-02-28T04:57:18;-5.04;76.02
65598;SHT31;52267;51.984;20.956;2023-02-28T04:59:45;-5.06;76.09
65598;SHT31;52267;51.984;20.956;2023-02-28T05:02:12;-5.12;76.25
65598;SHT31;52267;51.984;20.956;2023-02-28T05:04:39;-5.14;76.28
65598;SHT31;52267;51.984;20.956;2023-02-28T05:07:06;-5.15;76.26
65598;SHT31;52267;51.984;20.956;2023-02-28T05:09:33;-5.15;76.21
65598;SHT31;52267;51.984;20.956;2023-02-28T05:12:01;-5.14;76.11
65598;SHT31;52267;51.984;20.956;2023-02-28T05:14:28;-5.14;76.08
65598;SHT31;52267;51.984;20.956;2023-02-28T05:16:55;-5.18;76.14
65598;SHT31;52267;51.984;20.956;2023-02-28T05:19:22;-5.30;76.47
65598;SHT31;52267;51.984;20.956;2023-02-28T05:21:50;-5.42;76.78
65598;SHT31;52267;51.984;20.956;2023-02-28T05:24:20;-5.42;76.89
65598;SHT31;52267;51.984;20.956;2023-02-28T05:26:51;-5.39;76.77
65598;SHT31;52267;51.984;20.956;2023-02-28T05:29:19;-5.36;76.57
65598;SHT31;52267;51.984;20.956;2023-02-28T05:31:47;-5.36;76.46
65598;SHT31;52267;51.984;20.956;2023-02-28T05:34:14;-5.37;76.57
65598;SHT31;52267;51.984;20.956;2023-02-28T05:36:42;-5.41;76.68
65598;SHT31;52267;51.984;20.956;2023-02-28T05:39:10;-5.45;76.78
65598;SHT31;52267;51.984;20.956;2023-02-28T05:41:39;-5.52;77.01
65598;SHT31;52267;51.984;20.956;2023-02-28T05:44:08;-5.57;77.29
65598;SHT31;52267;51.984;20.956;2023-02-28T05:46:36;-5.54;77.34
65598;SHT31;52267;51.984;20.956;2023-02-28T05:49:03;-5.49;77.33
65598;SHT31;52267;51.984;20.956;2023-02-28T05:51:30;-5.45;77.29
65598;SHT31;52267;51.984;20.956;2023-02-28T05:54:00;-5.35;77.20
65598;SHT31;52267;51.984;20.956;2023-02-28T05:56:28;-5.23;77.07
65598;SHT31;52267;51.984;20.956;2023-02-28T05:58:55;-5.18;76.90
65598;SHT31;52267;51.984;20.956;2023-02-28T06:01:24;-5.14;76.83
65598;SHT31;52267;51.984;20.956;2023-02-28T06:03:59;-4.99;76.76
65598;SHT31;52267;51.984;20.956;2023-02-28T06:06:27;-4.91;76.50
65598;SHT31;52267;51.984;20.956;2023-02-28T06:08:56;-4.85;76.39
65598;SHT31;52267;51.984;20.956;2023-02-28T06:11:23;-4.77;76.15
65598;SHT31;52267;51.984;20.956;2023-02-28T06:13:54;-4.69;76.04
65598;SHT31;52267;51.984;20.956;2023-02-28T06:16:26;-4.61;76.12
65598;SHT31;52267;51.984;20.956;2023-02-28T06:18:56;-4.50;76.13
65598;SHT31;52267;51.984;20.956;2023-02-28T06:21:25;-4.41;76.00
65598;SHT31;52267;51.984;20.956;2023-02-28T06:23:56;-4.37;75.93
65598;SHT31;52267;51.984;20.956;2023-02-28T06:26:24;-4.35;75.99
65598;SHT31;52267;51.984;20.956;2023-02-28T06:28:52;-4.34;76.08
65598;SHT31;52267;51.984;20.956;2023-02-28T06:31:20;-4.30;76.13
65598;SHT31;52267;51.984;20.956;2023-02-28T06:33:48;-4.27;76.03
65598;SHT31;52267;51.984;20.956;2023-02-28T06:36:16;-4.21;76.14
65598;SHT31;52267;51.984;20.956;2023-02-28T06:38:44;-4.16;76.16
65598;SHT31;52267;51.984;20.956;2023-02-28T06:41:11;-4.10;76.33
65598;SHT31;52267;51.984;20.956;2023-02-28T06:43:39;-4.03;76.37
65598;SHT31;52267;51.984;20.956;2023-02-28T06:46:11;-3.95;76.50
65598;SHT31;52267;51.984;20.956;2023-02-28T06:48:40;-3.86;76.72
65598;SHT31;52267;51.984;20.956;2023-02-28T06:51:10;-3.76;76.97
65598;SHT31;52267;51.984;20.956;2023-02-28T06:53:41;-3.63;76.94
65598;SHT31;52267;51.984;20.956;2023-02-28T06:56:09;-3.50;76.84
65598;SHT31;52267;51.984;20.956;2023-02-28T06:58:39;-3.34;76.78
65598;SHT31;52267;51.984;20.956;2023-02-28T07:01:07;-3.19;76.69
65598;SHT31;52267;51.984;20.956;2023-02-28T07:03:35;-3.04;76.52
65598;SHT31;52267;51.984;20.956;2023-02-28T07:06:04;-2.87;76.49
65598;SHT31;52267;51.984;20.956;2023-02-28T07:08:33;-2.66;76.37
65598;SHT31;52267;51.984;20.956;2023-02-28T07:11:02;-2.42;76.23
65598;SHT31;52267;51.984;20.956;2023-02-28T07:13:30;-2.21;75.79
65598;SHT31;52267;51.984;20.956;2023-02-28T07:18:27;-1.82;75.08
65598;SHT31;52267;51.984;20.956;2023-02-28T07:20:55;-1.65;74.29
65598;SHT31;52267;51.984;20.956;2023-02-28T07:23:22;-1.41;74.01
65598;SHT31;52267;51.984;20.956;2023-02-28T07:25:50;-1.14;73.83
65598;SHT31;52267;51.984;20.956;2023-02-28T07:28:18;-0.85;73.70
65598;SHT31;52267;51.984;20.956;2023-02-28T07:30:45;-0.57;73.16
65598;SHT31;52267;51.984;20.956;2023-02-28T07:33:12;-0.36;72.30
65598;SHT31;52267;51.984;20.956;2023-02-28T07:35:39;-0.15;71.75
65598;SHT31;52267;51.984;20.956;2023-02-28T07:38:06;0.14;71.49
65598;SHT31;52267;51.984;20.956;2023-02-28T07:40:34;0.34;69.14
65598;SHT31;52267;51.984;20.956;2023-02-28T07:43:03;0.61;70.20
65598;SHT31;52267;51.984;20.956;2023-02-28T07:45:30;0.83;68.53
65598;SHT31;52267;51.984;20.956;2023-02-28T07:48:00;0.83;65.78
65598;SHT31;52267;51.984;20.956;2023-02-28T07:50:28;0.99;66.36
65598;SHT31;52267;51.984;20.956;2023-02-28T07:52:58;1.14;66.30
65598;SHT31;52267;51.984;20.956;2023-02-28T07:55:25;1.27;66.83
65598;SHT31;52267;51.984;20.956;2023-02-28T07:57:53;1.32;65.35
65598;SHT31;52267;51.984;20.956;2023-02-28T08:00:21;1.59;65.73
65598;SHT31;52267;51.984;20.956;2023-02-28T08:02:49;1.72;65.04
65598;SHT31;52267;51.984;20.956;2023-02-28T08:05:16;1.86;62.38
65598;SHT31;52267;51.984;20.956;2023-02-28T08:07:43;1.87;60.86
65598;SHT31;52267;51.984;20.956;2023-02-28T08:10:10;2.02;61.29
65598;SHT31;52267;51.984;20.956;2023-02-28T08:12:38;2.17;60.90
65598;SHT31;52267;51.984;20.956;2023-02-28T08:15:05;2.32;63.41
65598;SHT31;52267;51.984;20.956;2023-02-28T08:17:32;2.34;61.48
65598;SHT31;52267;51.984;20.956;2023-02-28T08:20:00;2.46;64.30
65598;SHT31;52267;51.984;20.956;2023-02-28T08:22:27;2.80;62.18
65598;SHT31;52267;51.984;20.956;2023-02-28T08:24:54;2.99;61.99
65598;SHT31;52267;51.984;20.956;2023-02-28T08:27:21;3.07;60.39
65598;SHT31;52267;51.984;20.956;2023-02-28T08:29:48;3.41;59.00
65598;SHT31;52267;51.984;20.956;2023-02-28T08:32:15;3.71;58.85
65598;SHT31;52267;51.984;20.956;2023-02-28T08:34:42;3.62;56.98
65598;SHT31;52267;51.984;20.956;2023-02-28T08:37:09;3.37;54.46
65598;SHT31;52267;51.984;20.956;2023-02-28T08:39:37;3.26;58.74
65598;SHT31;52267;51.984;20.956;2023-02-28T08:42:04;3.26;59.16
65598;SHT31;52267;51.984;20.956;2023-02-28T08:44:31;3.11;56.77
65598;SHT31;52267;51.984;20.956;2023-02-28T08:46:59;3.06;55.07
65598;SHT31;52267;51.984;20.956;2023-02-28T08:49:26;3.04;56.60
65598;SHT31;52267;51.984;20.956;2023-02-28T08:51:53;2.98;58.93
65598;SHT31;52267;51.984;20.956;2023-02-28T08:54:24;2.85;57.78
65598;SHT31;52267;51.984;20.956;2023-02-28T08:56:52;2.80;55.59
65598;SHT31;52267;51.984;20.956;2023-02-28T08:59:19;2.99;57.33
65598;SHT31;52267;51.984;20.956;2023-02-28T09:01:46;3.10;55.70
65598;SHT31;52267;51.984;20.956;2023-02-28T09:04:13;2.88;56.55
65598;SHT31;52267;51.984;20.956;2023-02-28T09:06:40;2.84;57.36
65598;SHT31;52267;51.984;20.956;2023-02-28T09:09:07;2.81;58.30
65598;SHT31;52267;51.984;20.956;2023-02-28T09:11:35;2.77;58.16
65598;SHT31;52267;51.984;20.956;2023-02-28T09:14:03;2.71;59.12
65598;SHT31;52267;51.984;20.956;2023-02-28T09:16:31;2.72;59.37
65598;SHT31;52267;51.984;20.956;2023-02-28T09:18:59;2.80;59.28
65598;SHT31;52267;51.984;20.956;2023-02-28T09:21:29;2.72;57.88
65598;SHT31;52267;51.984;20.956;2023-02-28T09:23:56;2.61;58.56
65598;SHT31;52267;51.984;20.956;2023-02-28T09:26:25;2.57;55.55
65598;SHT31;52267;51.984;20.956;2023-02-28T09:28:54;2.64;56.29
65598;SHT31;52267;51.984;20.956;2023-02-28T09:31:23;2.84;56.62
65598;SHT31;52267;51.984;20.956;2023-02-28T09:33:53;3.07;56.36
65598;SHT31;52267;51.984;20.956;2023-02-28T09:36:23;3.27;57.72
65598;SHT31;52267;51.984;20.956;2023-02-28T09:38:51;3.38;56.64
65598;SHT31;52267;51.984;20.956;2023-02-28T09:41:20;3.15;52.72
65598;SHT31;52267;51.984;20.956;2023-02-28T09:43:59;3.14;54.58
65598;SHT31;52267;51.984;20.956;2023-02-28T09:46:31;3.33;55.97
65598;SHT31;52267;51.984;20.956;2023-02-28T09:49:07;3.47;55.28
65598;SHT31;52267;51.984;20.956;2023-02-28T09:54:27;4.04;54.39
65598;SHT31;52267;51.984;20.956;2023-02-28T10:05:50;4.03;55.92
65598;SHT31;52267;51.984;20.956;2023-02-28T10:11:54;4.06;54.27
65598;SHT31;52267;51.984;20.956;2023-02-28T10:14:29;4.08;53.09
65598;SHT31;52267;51.984;20.956;2023-02-28T10:17:16;4.11;55.04
65598;SHT31;52267;51.984;20.956;2023-02-28T10:22:49;4.21;53.37
65598;SHT31;52267;51.984;20.956;2023-02-28T10:25:44;4.41;53.72
65598;SHT31;52267;51.984;20.956;2023-02-28T10:28:19;4.49;53.94
65598;SHT31;52267;51.984;20.956;2023-02-28T10:30:50;4.44;53.37
65598;SHT31;52267;51.984;20.956;2023-02-28T10:33:21;4.51;54.68
65598;SHT31;52267;51.984;20.956;2023-02-28T10:36:03;4.64;53.64
65598;SHT31;52267;51.984;20.956;2023-02-28T10:38:34;4.72;53.79
65598;SHT31;52267;51.984;20.956;2023-02-28T10:41:08;4.75;53.42
65598;SHT31;52267;51.984;20.956;2023-02-28T10:43:41;4.97;51.43
65598;SHT31;52267;51.984;20.956;2023-02-28T10:46:15;5.21;52.28
65598;SHT31;52267;51.984;20.956;2023-02-28T10:49:00;5.37;53.69
65598;SHT31;52267;51.984;20.956;2023-02-28T10:51:34;5.47;50.53
65598;SHT31;52267;51.984;20.956;2023-02-28T10:54:04;5.66;48.61
65598;SHT31;52267;51.984;20.956;2023-02-28T10:56:32;5.70;51.23
65598;SHT31;52267;51.984;20.956;2023-02-28T10:59:01;5.66;50.76
65598;SHT31;52267;51.984;20.956;2023-02-28T11:01:39;5.66;51.12
65598;SHT31;52267;51.984;20.956;2023-02-28T11:09:50;5.64;52.79
65598;SHT31;52267;51.984;20.956;2023-02-28T11:14:55;5.72;49.91
65598;SHT31;52267;51.984;20.956;2023-02-28T11:17:28;5.71;50.81
65598;SHT31;52267;51.984;20.956;2023-02-28T11:19:58;5.64;51.23
65598;SHT31;52267;51.984;20.956;2023-02-28T11:22:31;5.68;50.96
65598;SHT31;52267;51.984;20.956;2023-02-28T11:25:07;5.59;52.10
65598;SHT31;52267;51.984;20.956;2023-02-28T11:36:18;5.41;53.41
65598;SHT31;52267;51.984;20.956;2023-02-28T11:38:56;5.43;51.94
65598;SHT31;52267;51.984;20.956;2023-02-28T11:44:53;5.55;51.75
65598;SHT31;52267;51.984;20.956;2023-02-28T11:47:30;5.49;53.11
65598;SHT31;52267;51.984;20.956;2023-02-28T11:50:33;5.41;52.33
65598;SHT31;52267;51.984;20.956;2023-02-28T11:56:18;5.57;49.89
65598;SHT31;52267;51.984;20.956;2023-02-28T12:19:18;5.52;51.60
65598;SHT31;52267;51.984;20.956;2023-02-28T12:27:30;5.14;48.94
65598;SHT31;52267;51.984;20.956;2023-02-28T12:30:25;5.26;50.34
65598;SHT31;52267;51.984;20.956;2023-02-28T12:33:17;5.46;50.75
65598;SHT31;52267;51.984;20.956;2023-02-28T12:35:57;5.60;50.83
65598;SHT31;52267;51.984;20.956;2023-02-28T12:38:31;5.57;50.66
65598;SHT31;52267;51.984;20.956;2023-02-28T12:44:06;5.79;50.61
65598;SHT31;52267;51.984;20.956;2023-02-28T12:46:43;5.85;49.23
65598;SHT31;52267;51.984;20.956;2023-02-28T12:52:13;6.28;49.75
65598;SHT31;52267;51.984;20.956;2023-02-28T12:54:47;6.27;49.71
65598;SHT31;52267;51.984;20.956;2023-02-28T12:57:44;6.17;46.80
65598;SHT31;52267;51.984;20.956;2023-02-28T13:00:33;6.14;48.19
65598;SHT31;52267;51.984;20.956;2023-02-28T13:05:56;6.05;49.80
65598;SHT31;52267;51.984;20.956;2023-02-28T13:11:32;5.66;50.39
65598;SHT31;52267;51.984;20.956;2023-02-28T13:19:38;5.63;50.69
65598;SHT31;52267;51.984;20.956;2023-02-28T13:28:01;5.22;48.68
65598;SHT31;52267;51.984;20.956;2023-02-28T13:38:56;5.05;51.17
65598;SHT31;52267;51.984;20.956;2023-02-28T13:55:44;4.83;52.43
65598;SHT31;52267;51.984;20.956;2023-02-28T13:58:53;4.75;52.46
65598;SHT31;52267;51.984;20.956;2023-02-28T14:02:34;4.74;52.89
65598;SHT31;52267;51.984;20.956;2023-02-28T14:07:31;4.72;52.82
65598;SHT31;52267;51.984;20.956;2023-02-28T14:10:21;4.71;52.71
65598;SHT31;52267;51.984;20.956;2023-02-28T14:12:58;4.73;53.19
65598;SHT31;52267;51.984;20.956;2023-02-28T14:21:27;4.69;53.04
65598;SHT31;52267;51.984;20.956;2023-02-28T14:27:27;4.69;52.94
65598;SHT31;52267;51.984;20.956;2023-02-28T14:30:07;4.71;53.37
65598;SHT31;52267;51.984;20.956;2023-02-28T14:38:51;4.74;53.65
65598;SHT31;52267;51.984;20.956;2023-02-28T14:41:23;4.70;53.42
65598;SHT31;52267;51.984;20.956;2023-02-28T14:43:58;4.67;52.70
65598;SHT31;52267;51.984;20.956;2023-02-28T14:46:45;4.66;52.80
65598;SHT31;52267;51.984;20.956;2023-02-28T14:49:36;4.66;52.90
65598;SHT31;52267;51.984;20.956;2023-02-28T14:54:44;4.67;53.64
65598;SHT31;52267;51.984;20.956;2023-02-28T15:00:23;4.65;53.46
65598;SHT31;52267;51.984;20.956;2023-02-28T15:02:53;4.60;53.06
65598;SHT31;52267;51.984;20.956;2023-02-28T15:05:24;4.56;53.84
65598;SHT31;52267;51.984;20.956;2023-02-28T15:08:15;4.52;53.40
65598;SHT31;52267;51.984;20.956;2023-02-28T15:10:44;4.50;53.86
65598;SHT31;52267;51.984;20.956;2023-02-28T15:13:52;4.46;54.18
65598;SHT31;52267;51.984;20.956;2023-02-28T15:16:31;4.40;54.31
65598;SHT31;52267;51.984;20.956;2023-02-28T15:19:07;4.36;54.30
65598;SHT31;52267;51.984;20.956;2023-02-28T15:21:47;4.32;54.44
65598;SHT31;52267;51.984;20.956;2023-02-28T15:26:53;4.24;54.57
65598;SHT31;52267;51.984;20.956;2023-02-28T15:29:26;4.15;54.58
65598;SHT31;52267;51.984;20.956;2023-02-28T15:32:03;4.07;54.81
65598;SHT31;52267;51.984;20.956;2023-02-28T15:37:06;3.85;54.99
65598;SHT31;52267;51.984;20.956;2023-02-28T15:39:54;3.74;55.03
65598;SHT31;52267;51.984;20.956;2023-02-28T15:42:27;3.65;55.31
65598;SHT31;52267;51.984;20.956;2023-02-28T15:44:56;3.57;55.28
65598;SHT31;52267;51.984;20.956;2023-02-28T15:47:24;3.50;55.53
65598;SHT31;52267;51.984;20.956;2023-02-28T15:49:56;3.42;55.70
65598;SHT31;52267;51.984;20.956;2023-02-28T15:52:45;3.36;55.78
65598;SHT31;52267;51.984;20.956;2023-02-28T15:57:54;3.15;56.12
65598;SHT31;52267;51.984;20.956;2023-02-28T16:00:25;3.02;56.22
65598;SHT31;52267;51.984;20.956;2023-02-28T16:02:54;2.94;56.44
65598;SHT31;52267;51.984;20.956;2023-02-28T16:05:23;2.83;56.58
65598;SHT31;52267;51.984;20.956;2023-02-28T16:08:00;2.69;56.91
65598;SHT31;52267;51.984;20.956;2023-02-28T16:10:41;2.57;57.09
65598;SHT31;52267;51.984;20.956;2023-02-28T16:13:08;2.46;57.18
65598;SHT31;52267;51.984;20.956;2023-02-28T16:15:41;2.34;57.41
65598;SHT31;52267;51.984;20.956;2023-02-28T16:18:10;2.20;57.78
65598;SHT31;52267;51.984;20.956;2023-02-28T16:20:39;2.08;57.96
65598;SHT31;52267;51.984;20.956;2023-02-28T16:23:06;1.95;58.15
65598;SHT31;52267;51.984;20.956;2023-02-28T16:25:35;1.85;58.33
65598;SHT31;52267;51.984;20.956;2023-02-28T16:28:11;1.75;58.62
65598;SHT31;52267;51.984;20.956;2023-02-28T16:30:51;1.66;58.71
65598;SHT31;52267;51.984;20.956;2023-02-28T16:33:19;1.57;58.80
65598;SHT31;52267;51.984;20.956;2023-02-28T16:35:46;1.47;58.88
65598;SHT31;52267;51.984;20.956;2023-02-28T16:38:14;1.37;59.08
65598;SHT31;52267;51.984;20.956;2023-02-28T16:40:42;1.25;59.53
65598;SHT31;52267;51.984;20.956;2023-02-28T16:43:18;1.09;59.68
65598;SHT31;52267;51.984;20.956;2023-02-28T16:45:52;0.95;60.20
65598;SHT31;52267;51.984;20.956;2023-02-28T16:48:25;0.80;61.04
65598;SHT31;52267;51.984;20.956;2023-02-28T16:50:53;0.69;61.15
65598;SHT31;52267;51.984;20.956;2023-02-28T16:53:20;0.57;61.11
65598;SHT31;52267;51.984;20.956;2023-02-28T16:55:49;0.47;61.32
65598;SHT31;52267;51.984;20.956;2023-02-28T16:58:18;0.40;61.41
65598;SHT31;52267;51.984;20.956;2023-02-28T17:00:48;0.30;61.61
65598;SHT31;52267;51.984;20.956;2023-02-28T17:03:21;0.25;61.88
65598;SHT31;52267;51.984;20.956;2023-02-28T17:05:53;0.20;62.30
65598;SHT31;52267;51.984;20.956;2023-02-28T17:08:21;0.08;62.59
65598;SHT31;52267;51.984;20.956;2023-02-28T17:10:48;0.02;62.99
65598;SHT31;52267;51.984;20.956;2023-02-28T17:13:15;-0.09;63.40
65598;SHT31;52267;51.984;20.956;2023-02-28T17:15:44;-0.20;63.95
65598;SHT31;52267;51.984;20.956;2023-02-28T17:18:16;-0.28;64.06
65598;SHT31;52267;51.984;20.956;2023-02-28T17:20:46;-0.40;64.62
65598;SHT31;52267;51.984;20.956;2023-02-28T17:23:14;-0.42;64.24
65598;SHT31;52267;51.984;20.956;2023-02-28T17:25:43;-0.43;64.02
65598;SHT31;52267;51.984;20.956;2023-02-28T17:28:20;-0.43;63.93
65598;SHT31;52267;51.984;20.956;2023-02-28T17:30:49;-0.48;64.15
65598;SHT31;52267;51.984;20.956;2023-02-28T17:33:17;-0.50;64.33
65598;SHT31;52267;51.984;20.956;2023-02-28T17:35:44;-0.53;64.48
65598;SHT31;52267;51.984;20.956;2023-02-28T17:38:16;-0.58;64.61
65598;SHT31;52267;51.984;20.956;2023-02-28T17:40:47;-0.62;64.78
65598;SHT31;52267;51.984;20.956;2023-02-28T17:43:15;-0.68;65.31
65598;SHT31;52267;51.984;20.956;2023-02-28T17:45:43;-0.71;65.25
65598;SHT31;52267;51.984;20.956;2023-02-28T17:48:11;-0.73;65.14
65598;SHT31;52267;51.984;20.956;2023-02-28T17:50:39;-0.77;65.23
65598;SHT31;52267;51.984;20.956;2023-02-28T17:53:06;-0.80;65.37
65598;SHT31;52267;51.984;20.956;2023-02-28T17:55:34;-0.89;65.84
65598;SHT31;52267;51.984;20.956;2023-02-28T17:58:02;-0.98;66.52
65598;SHT31;52267;51.984;20.956;2023-02-28T18:00:30;-1.03;66.84
65598;SHT31;52267;51.984;20.956;2023-02-28T18:03:01;-1.08;66.91
65598;SHT31;52267;51.984;20.956;2023-02-28T18:05:28;-1.10;66.75
65598;SHT31;52267;51.984;20.956;2023-02-28T18:07:58;-1.17;66.93
65598;SHT31;52267;51.984;20.956;2023-02-28T18:10:27;-1.20;66.92
65598;SHT31;52267;51.984;20.956;2023-02-28T18:12:55;-1.20;66.87
65598;SHT31;52267;51.984;20.956;2023-02-28T18:15:24;-1.21;67.03
65598;SHT31;52267;51.984;20.956;2023-02-28T18:17:51;-1.28;67.41
65598;SHT31;52267;51.984;20.956;2023-02-28T18:20:20;-1.34;67.42
65598;SHT31;52267;51.984;20.956;2023-02-28T18:22:49;-1.37;67.30
65598;SHT31;52267;51.984;20.956;2023-02-28T18:25:19;-1.39;67.33
65598;SHT31;52267;51.984;20.956;2023-02-28T18:27:48;-1.43;67.46
65598;SHT31;52267;51.984;20.956;2023-02-28T18:30:20;-1.46;67.48
65598;SHT31;52267;51.984;20.956;2023-02-28T18:32:48;-1.53;68.18
65598;SHT31;52267;51.984;20.956;2023-02-28T18:35:17;-1.57;67.95
65598;SHT31;52267;51.984;20.956;2023-02-28T18:38:13;-1.60;68.02
65598;SHT31;52267;51.984;20.956;2023-02-28T18:40:55;-1.61;67.93
65598;SHT31;52267;51.984;20.956;2023-02-28T18:43:28;-1.63;67.97
65598;SHT31;52267;51.984;20.956;2023-02-28T18:46:15;-1.75;69.51
65598;SHT31;52267;51.984;20.956;2023-02-28T18:48:46;-1.88;70.12
65598;SHT31;52267;51.984;20.956;2023-02-28T18:51:18;-1.90;69.65
65598;SHT31;52267;51.984;20.956;2023-02-28T18:53:49;-1.98;69.64
65598;SHT31;52267;51.984;20.956;2023-02-28T18:56:22;-2.04;69.93
65598;SHT31;52267;51.984;20.956;2023-02-28T18:58:53;-2.08;70.08
65598;SHT31;52267;51.984;20.956;2023-02-28T19:01:25;-2.13;71.39
65598;SHT31;52267;51.984;20.956;2023-02-28T19:04:00;-2.27;74.38
65598;SHT31;52267;51.984;20.956;2023-02-28T19:06:31;-2.33;74.49